createdAt,value
2019-03-06T00:00:08.633Z,60.33
2019-03-06T00:02:40.582Z,59.48
2019-03-06T00:05:10.898Z,59.10
2019-03-06T00:07:41.226Z,60.73
2019-03-06T00:10:26.272Z,58.95
2019-03-06T00:12:56.608Z,56.53
2019-03-06T00:15:27.006Z,57.60
2019-03-06T00:17:57.369Z,58.83
2019-03-06T00:20:28.418Z,60.73
2019-03-06T00:22:58.752Z,58.23
2019-03-06T00:25:29.211Z,59.55
2019-03-06T00:27:59.512Z,57.88
2019-03-06T00:30:30.379Z,59.38
2019-03-06T00:33:00.747Z,57.78
2019-03-06T00:35:36.917Z,56.73
2019-03-06T00:38:09.912Z,55.38
2019-03-06T00:40:45.139Z,55.65
2019-03-06T00:43:15.386Z,57.00
2019-03-06T00:45:45.689Z,55.80
2019-03-06T00:48:15.925Z,56.25
2019-03-06T00:50:46.514Z,56.15
2019-03-06T00:53:17.699Z,55.12
2019-03-06T00:55:48.036Z,53.95
2019-03-06T00:58:18.267Z,53.38
2019-03-06T01:00:48.545Z,53.30
2019-03-06T01:03:19.128Z,53.33
2019-03-06T01:05:49.352Z,53.73
2019-03-06T01:08:19.668Z,53.08
2019-03-06T01:10:49.943Z,53.98
2019-03-06T01:13:20.535Z,52.30
2019-03-06T01:15:50.763Z,51.28
2019-03-06T01:18:21.157Z,50.40
2019-03-06T01:20:51.650Z,51.55
2019-03-06T01:23:22.005Z,50.83
2019-03-06T01:25:52.509Z,49.53
2019-03-06T01:28:22.769Z,50.98
2019-03-06T01:30:55.841Z,48.68
2019-03-06T01:33:40.427Z,47.48
2019-03-06T01:36:26.457Z,49.08
2019-03-06T01:39:02.853Z,48.08
2019-03-06T01:41:42.454Z,46.02
2019-03-06T01:44:17.187Z,45.65
2019-03-06T01:46:47.499Z,47.98
2019-03-06T01:49:17.755Z,46.42
2019-03-06T01:51:48.026Z,46.60
2019-03-06T01:54:18.402Z,46.88
2019-03-06T01:56:48.612Z,44.03
2019-03-06T01:59:18.995Z,44.33
2019-03-06T02:01:50.597Z,44.30
2019-03-06T02:04:20.982Z,45.08
2019-03-06T02:06:51.202Z,45.98
2019-03-06T02:09:22.818Z,44.65
2019-03-06T02:11:53.167Z,42.08
2019-03-06T02:14:23.524Z,44.08
2019-03-06T02:16:53.835Z,42.08
2019-03-06T02:19:24.238Z,42.53
2019-03-06T02:21:54.549Z,42.70
2019-03-06T02:24:24.940Z,42.40
2019-03-06T02:26:55.277Z,41.60
2019-03-06T02:29:25.575Z,40.90
2019-03-06T02:31:55.924Z,40.88
2019-03-06T02:34:26.408Z,41.85
2019-03-06T02:36:59.101Z,39.55
2019-03-06T02:39:29.534Z,39.38
2019-03-06T02:41:59.863Z,39.67
2019-03-06T02:44:30.352Z,39.90
2019-03-06T02:47:01.022Z,37.17
2019-03-06T02:49:31.314Z,38.70
2019-03-06T02:52:01.679Z,38.78
2019-03-06T02:54:32.040Z,38.45
2019-03-06T02:57:03.683Z,37.40
2019-03-06T02:59:49.446Z,36.95
2019-03-06T03:02:29.371Z,36.40
2019-03-06T03:05:31.547Z,33.30
2019-03-06T03:08:04.882Z,36.38
2019-03-06T03:10:35.273Z,35.55
2019-03-06T03:13:05.840Z,34.60
2019-03-06T03:15:36.214Z,34.83
2019-03-06T03:18:06.554Z,35.25
2019-03-06T03:20:37.424Z,34.50
2019-03-06T03:23:07.669Z,34.65
2019-03-06T03:25:37.966Z,35.58
2019-03-06T03:28:08.339Z,34.00
2019-03-06T03:30:38.554Z,35.52
2019-03-06T03:33:09.002Z,31.75
2019-03-06T03:35:39.403Z,32.75
2019-03-06T03:38:09.741Z,32.55
2019-03-06T03:40:40.097Z,33.00
2019-03-06T03:43:10.369Z,32.15
2019-03-06T03:45:40.767Z,32.03
2019-03-06T03:48:11.445Z,31.02
2019-03-06T03:50:41.728Z,30.85
2019-03-06T03:53:11.962Z,30.60
2019-03-06T03:55:42.292Z,31.55
2019-03-06T03:58:12.571Z,30.10
2019-03-06T04:00:44.972Z,30.77
2019-03-06T04:03:15.275Z,30.45
2019-03-06T04:05:45.542Z,29.98
2019-03-06T04:08:15.746Z,28.80
2019-03-06T04:10:46.031Z,28.40
2019-03-06T04:13:16.312Z,28.05
2019-03-06T04:15:46.496Z,28.35
2019-03-06T04:18:19.948Z,31.15
2019-03-06T04:21:06.457Z,27.60
2019-03-06T04:23:38.355Z,27.73
2019-03-06T04:26:08.623Z,26.23
2019-03-06T04:28:38.980Z,27.87
2019-03-06T04:31:09.228Z,26.30
2019-03-06T04:33:39.500Z,26.95
2019-03-06T04:36:09.888Z,26.48
2019-03-06T04:38:40.136Z,26.25
2019-03-06T04:41:10.414Z,25.25
2019-03-06T04:43:41.041Z,26.65
2019-03-06T04:46:11.318Z,25.05
2019-03-06T04:48:41.690Z,25.27
2019-03-06T04:51:13.470Z,25.45
2019-03-06T04:53:43.762Z,24.85
2019-03-06T04:56:14.066Z,25.35
2019-03-06T04:58:44.421Z,24.02
2019-03-06T05:01:14.650Z,25.20
2019-03-06T05:03:45.250Z,23.52
2019-03-06T05:06:15.736Z,23.70
2019-03-06T05:08:47.068Z,23.42
2019-03-06T05:11:17.285Z,24.00
2019-03-06T05:13:47.881Z,22.22
2019-03-06T05:16:18.169Z,20.40
2019-03-06T05:18:51.328Z,18.45
2019-03-06T05:21:23.696Z,15.65
2019-03-06T05:23:54.031Z,15.40
2019-03-06T05:26:24.467Z,13.60
2019-03-06T05:28:54.983Z,12.35
2019-03-06T05:31:25.587Z,10.85
2019-03-06T05:33:55.840Z,10.45
2019-03-06T05:36:57.942Z,9.93
2019-03-06T05:39:28.174Z,8.10
2019-03-06T05:41:58.371Z,9.78
2019-03-06T05:44:28.653Z,8.38
2019-03-06T05:46:59.038Z,7.78
2019-03-06T05:49:29.348Z,7.17
2019-03-06T05:51:59.620Z,9.55
2019-03-06T05:54:32.679Z,6.58
2019-03-06T05:57:07.252Z,6.40
2019-03-06T05:59:37.448Z,8.30
2019-03-06T06:02:07.917Z,8.25
2019-03-06T06:04:38.174Z,7.55
2019-03-06T06:07:08.555Z,6.37
2019-03-06T06:09:38.933Z,7.20
2019-03-06T06:12:09.159Z,8.00
2019-03-06T06:14:39.934Z,6.67
2019-03-06T06:17:10.170Z,6.78
2019-03-06T06:19:40.806Z,8.05
2019-03-06T06:22:30.124Z,6.72
2019-03-06T06:25:00.610Z,8.93
2019-03-06T06:27:35.241Z,8.58
2019-03-06T06:30:08.872Z,11.30
2019-03-06T06:32:39.118Z,16.32
2019-03-06T06:35:10.630Z,15.80
2019-03-06T06:37:41.346Z,16.32
2019-03-06T06:40:12.746Z,16.77
2019-03-06T06:42:43.039Z,21.45
2019-03-06T06:45:14.692Z,19.25
2019-03-06T06:48:09.993Z,22.00
2019-03-06T06:50:48.070Z,25.40
2019-03-06T06:53:52.442Z,23.45
2019-03-06T06:56:51.166Z,35.70
2019-03-06T06:59:35.256Z,28.47
2019-03-06T07:02:56.833Z,35.00
2019-03-06T07:06:04.528Z,39.70
2019-03-06T07:08:52.608Z,44.33
2019-03-06T07:12:00.344Z,54.88
2019-03-06T07:14:52.381Z,38.45
2019-03-06T07:17:38.057Z,48.35
2019-03-06T07:20:29.969Z,43.87
2019-03-06T07:23:06.599Z,42.95
2019-03-06T07:25:54.808Z,46.55
2019-03-06T07:28:35.790Z,41.60
2019-03-06T07:31:23.977Z,43.15
2019-03-06T07:34:31.921Z,40.90
2019-03-06T07:37:08.932Z,41.02
2019-03-06T07:40:01.475Z,46.48
2019-03-06T07:42:57.271Z,58.30
2019-03-06T07:46:09.885Z,49.80
2019-03-06T07:49:02.928Z,55.67
2019-03-06T07:51:54.854Z,56.48
2019-03-06T07:54:38.738Z,55.28
2019-03-06T07:57:37.015Z,52.62
2019-03-06T08:00:28.562Z,53.00
2019-03-06T08:03:12.170Z,51.63
2019-03-06T08:05:42.560Z,52.40
2019-03-06T08:08:12.983Z,51.40
2019-03-06T08:10:43.415Z,49.77
2019-03-06T08:13:23.980Z,50.03
2019-03-06T08:16:07.878Z,47.75
2019-03-06T08:18:57.011Z,49.30
2019-03-06T08:21:42.434Z,47.62
2019-03-06T08:24:34.755Z,46.50
2019-03-06T08:27:05.128Z,48.75
2019-03-06T08:29:35.475Z,46.48
2019-03-06T08:32:15.427Z,48.63
2019-03-06T08:34:45.678Z,45.85
2019-03-06T08:37:17.517Z,45.85
2019-03-06T08:39:47.919Z,44.18
2019-03-06T08:42:18.272Z,45.43
2019-03-06T08:44:48.585Z,46.23
2019-03-06T08:47:32.518Z,44.23
2019-03-06T08:50:18.609Z,45.43
2019-03-06T08:53:10.630Z,43.68
2019-03-06T08:56:11.897Z,43.60
2019-03-06T08:58:48.391Z,42.60
2019-03-06T09:01:36.851Z,42.60
2019-03-06T09:04:35.209Z,43.25
2019-03-06T09:07:23.041Z,40.80
2019-03-06T09:10:16.376Z,41.80
2019-03-06T09:13:01.210Z,40.92
2019-03-06T09:15:42.690Z,41.37
2019-03-06T09:18:29.716Z,39.85
2019-03-06T09:21:17.810Z,39.27
2019-03-06T09:24:11.054Z,37.10
2019-03-06T09:27:05.236Z,37.55
2019-03-06T09:29:54.030Z,37.00
2019-03-06T09:32:36.280Z,35.92
2019-03-06T09:35:15.066Z,35.23
2019-03-06T09:38:10.809Z,10.43
2019-03-06T09:40:51.762Z,12.60
2019-03-06T09:43:44.004Z,13.58
2019-03-06T09:46:40.157Z,11.55
2019-03-06T09:49:38.330Z,10.93
2019-03-06T09:52:32.511Z,10.58
2019-03-06T09:55:20.061Z,7.22
2019-03-06T09:58:09.292Z,8.23
2019-03-06T10:01:03.917Z,8.63
2019-03-06T10:04:02.347Z,7.90
2019-03-06T10:06:39.944Z,9.60
2019-03-06T10:09:43.893Z,9.35
2019-03-06T10:12:31.682Z,9.48
2019-03-06T10:15:23.584Z,9.43
2019-03-06T10:18:12.798Z,9.55
2019-03-06T10:20:43.084Z,13.13
2019-03-06T10:23:13.474Z,17.82
2019-03-06T10:25:43.924Z,16.15
2019-03-06T10:28:15.413Z,30.52
2019-03-06T10:30:45.645Z,30.23
2019-03-06T10:33:15.875Z,31.93
2019-03-06T10:35:46.443Z,25.57
2019-03-06T10:38:17.176Z,24.77
2019-03-06T10:40:47.677Z,32.65
2019-03-06T10:43:17.962Z,24.35
2019-03-06T10:45:48.333Z,27.70
2019-03-06T10:48:18.629Z,31.23
2019-03-06T10:50:48.848Z,27.13
2019-03-06T10:53:19.129Z,29.25
2019-03-06T10:55:49.400Z,28.42
2019-03-06T10:58:19.695Z,31.10
2019-03-06T11:00:52.477Z,29.45
2019-03-06T11:03:25.541Z,30.82
2019-03-06T11:05:55.934Z,30.80
2019-03-06T11:08:26.317Z,31.33
2019-03-06T11:10:56.639Z,29.80
2019-03-06T11:13:27.119Z,30.68
2019-03-06T11:15:57.444Z,28.57
2019-03-06T11:18:27.949Z,28.23
2019-03-06T11:20:58.320Z,23.25
2019-03-06T11:23:28.744Z,24.47
2019-03-06T11:25:59.135Z,22.65
2019-03-06T11:28:31.781Z,22.07
2019-03-06T11:31:02.562Z,19.27
2019-03-06T11:33:32.833Z,22.73
2019-03-06T11:36:03.164Z,20.00
2019-03-06T11:38:33.516Z,19.62
2019-03-06T11:41:05.201Z,19.45
2019-03-06T11:43:36.088Z,17.65
2019-03-06T11:46:07.995Z,22.10
2019-03-06T11:48:38.360Z,20.90
2019-03-06T11:51:08.690Z,20.72
2019-03-06T11:53:39.036Z,19.17
2019-03-06T11:56:09.419Z,20.68
2019-03-06T11:58:39.981Z,21.60
2019-03-06T12:01:13.212Z,19.02
2019-03-06T12:03:44.588Z,18.65
2019-03-06T12:06:15.887Z,19.23
2019-03-06T12:08:46.261Z,19.15
2019-03-06T12:11:16.633Z,18.15
2019-03-06T12:13:48.249Z,19.30
2019-03-06T12:16:19.964Z,20.68
2019-03-06T12:18:50.356Z,18.60
2019-03-06T12:21:20.728Z,18.87
2019-03-06T12:23:51.370Z,19.45
2019-03-06T12:26:21.900Z,15.70
2019-03-06T12:28:52.195Z,18.73
2019-03-06T12:31:22.613Z,16.20
2019-03-06T12:33:52.913Z,15.45
2019-03-06T12:36:23.483Z,35.95
2019-03-06T12:38:53.789Z,39.67
2019-03-06T12:41:24.088Z,35.08
2019-03-06T12:43:54.505Z,34.88
2019-03-06T12:46:25.868Z,29.75
2019-03-06T12:49:04.302Z,25.12
2019-03-06T12:51:36.461Z,24.63
2019-03-06T12:54:08.429Z,28.02
2019-03-06T12:56:38.896Z,24.20
2019-03-06T12:59:09.257Z,22.25
2019-03-06T13:01:40.210Z,21.65
2019-03-06T13:04:10.554Z,21.10
2019-03-06T13:06:40.919Z,24.10
2019-03-06T13:09:21.577Z,22.22
2019-03-06T13:11:51.973Z,18.10
2019-03-06T13:14:22.484Z,17.05
2019-03-06T13:16:52.754Z,15.63
2019-03-06T13:19:23.102Z,16.70
2019-03-06T13:21:53.398Z,16.70
2019-03-06T13:24:24.726Z,16.52
2019-03-06T13:26:55.402Z,15.63
2019-03-06T13:29:26.024Z,15.30
2019-03-06T13:31:58.293Z,12.00
2019-03-06T13:34:38.197Z,12.03
2019-03-06T13:37:08.975Z,11.12
2019-03-06T13:39:39.372Z,14.30
2019-03-06T13:42:09.737Z,15.72
2019-03-06T13:44:39.977Z,16.65
2019-03-06T13:47:10.809Z,24.87
2019-03-06T13:49:43.802Z,21.68
2019-03-06T13:52:14.057Z,15.45
2019-03-06T13:54:44.505Z,13.22
2019-03-06T13:57:14.884Z,12.78
2019-03-06T13:59:46.279Z,12.78
2019-03-06T14:02:16.613Z,11.57
2019-03-06T14:04:47.066Z,11.05
2019-03-06T14:07:17.623Z,20.52
2019-03-06T14:09:48.359Z,15.98
2019-03-06T14:12:19.045Z,14.95
2019-03-06T14:14:49.393Z,13.85
2019-03-06T14:17:19.722Z,14.55
2019-03-06T14:19:50.291Z,13.05
2019-03-06T14:22:20.651Z,13.00
2019-03-06T14:24:51.166Z,14.47
2019-03-06T14:27:21.574Z,14.05
2019-03-06T14:29:52.033Z,16.50
2019-03-06T14:32:22.818Z,17.85
2019-03-06T14:34:54.140Z,12.73
2019-03-06T14:37:24.556Z,15.70
2019-03-06T14:39:54.844Z,16.62
2019-03-06T14:42:25.694Z,13.53
2019-03-06T14:44:56.035Z,10.98
2019-03-06T14:47:26.769Z,14.10
2019-03-06T14:49:57.309Z,10.88
2019-03-06T14:52:27.912Z,10.93
2019-03-06T14:54:58.299Z,11.05
2019-03-06T14:57:28.614Z,11.48
2019-03-06T14:59:58.997Z,10.08
2019-03-06T15:02:29.495Z,13.08
2019-03-06T15:04:59.739Z,11.12
2019-03-06T15:07:30.061Z,19.15
2019-03-06T15:10:00.531Z,12.90
2019-03-06T15:12:32.713Z,15.43
2019-03-06T15:15:03.146Z,16.90
2019-03-06T15:17:33.506Z,16.75
2019-03-06T15:20:03.868Z,18.27
2019-03-06T15:22:38.517Z,17.62
2019-03-06T15:25:09.888Z,20.48
2019-03-06T15:27:40.251Z,21.68
2019-03-06T15:30:11.714Z,21.27
2019-03-06T15:32:42.218Z,21.12
2019-03-06T15:35:12.828Z,20.27
2019-03-06T15:37:43.139Z,21.55
2019-03-06T15:40:17.395Z,19.57
2019-03-06T15:42:47.768Z,20.77
2019-03-06T15:45:21.486Z,19.77
2019-03-06T15:47:52.131Z,19.77
2019-03-06T15:50:22.496Z,19.23
2019-03-06T15:52:52.909Z,17.55
2019-03-06T15:55:27.835Z,18.32
2019-03-06T15:57:58.216Z,21.50
2019-03-06T16:00:45.693Z,22.07
2019-03-06T16:03:10.207Z,19.60
2019-03-06T16:05:40.605Z,22.15
2019-03-06T16:08:10.969Z,22.48
2019-03-06T16:10:41.452Z,22.22
2019-03-06T16:13:11.846Z,23.30
2019-03-06T16:15:42.076Z,25.50
2019-03-06T16:18:12.363Z,27.20
2019-03-06T16:20:42.675Z,26.02
2019-03-06T16:23:13.002Z,26.33
2019-03-06T16:25:43.405Z,28.23
2019-03-06T16:28:15.437Z,28.95
2019-03-06T16:30:47.113Z,28.83
2019-03-06T16:33:17.462Z,30.65
2019-03-06T16:35:47.751Z,30.48
2019-03-06T16:38:18.048Z,30.12
2019-03-06T16:40:48.423Z,31.37
2019-03-06T16:43:18.748Z,30.55
2019-03-06T16:45:49.400Z,31.17
2019-03-06T16:48:20.347Z,31.00
2019-03-06T16:50:54.832Z,30.37
2019-03-06T16:53:26.542Z,28.95
2019-03-06T16:55:57.087Z,30.48
2019-03-06T16:58:27.373Z,33.08
2019-03-06T17:00:57.777Z,32.45
2019-03-06T17:03:28.063Z,32.30
2019-03-06T17:05:58.726Z,31.57
2019-03-06T17:08:31.439Z,33.28
2019-03-06T17:11:06.445Z,31.17
2019-03-06T17:13:37.114Z,32.45
2019-03-06T17:16:11.135Z,31.87
2019-03-06T17:18:41.447Z,31.77
2019-03-06T17:21:12.042Z,33.30
2019-03-06T17:23:42.358Z,32.60
2019-03-06T17:26:12.665Z,30.52
2019-03-06T17:28:42.973Z,31.45
2019-03-06T17:31:13.335Z,32.08
2019-03-06T17:33:43.681Z,32.98
2019-03-06T17:36:14.358Z,30.50
2019-03-06T17:38:44.594Z,31.23
2019-03-06T17:41:15.128Z,31.80
2019-03-06T17:43:45.440Z,32.03
2019-03-06T17:46:15.824Z,31.15
2019-03-06T17:48:46.176Z,29.82
2019-03-06T17:51:18.652Z,30.65
2019-03-06T17:53:49.357Z,31.40
2019-03-06T17:56:19.734Z,30.35
2019-03-06T17:58:50.619Z,29.63
2019-03-06T18:01:21.333Z,31.02
2019-03-06T18:04:22.873Z,29.20
2019-03-06T18:06:53.199Z,27.87
2019-03-06T18:09:25.173Z,29.95
2019-03-06T18:11:55.413Z,28.15
2019-03-06T18:14:25.854Z,29.55
2019-03-06T18:16:56.117Z,29.48
2019-03-06T18:19:26.458Z,29.42
2019-03-06T18:21:56.724Z,27.95
2019-03-06T18:24:27.049Z,28.47
2019-03-06T18:26:58.616Z,29.00
2019-03-06T18:29:28.920Z,27.80
2019-03-06T18:31:59.247Z,28.73
2019-03-06T18:34:29.558Z,28.67
2019-03-06T18:37:01.480Z,27.27
2019-03-06T18:39:31.822Z,27.42
2019-03-06T18:42:02.253Z,27.00
2019-03-06T18:44:32.518Z,28.47
2019-03-06T18:47:02.757Z,27.52
2019-03-06T18:49:33.151Z,27.37
2019-03-06T18:52:03.428Z,27.10
2019-03-06T18:54:33.974Z,28.30
2019-03-06T18:57:04.281Z,26.65
2019-03-06T18:59:34.509Z,26.60
2019-03-06T19:02:04.872Z,26.68
2019-03-06T19:04:35.077Z,27.40
2019-03-06T19:07:05.547Z,25.32
2019-03-06T19:09:36.340Z,26.35
2019-03-06T19:12:06.582Z,26.02
2019-03-06T19:14:36.933Z,25.65
2019-03-06T19:17:07.228Z,25.23
2019-03-06T19:19:38.611Z,24.23
2019-03-06T19:22:08.947Z,24.20
2019-03-06T19:24:39.337Z,24.80
2019-03-06T19:27:09.717Z,24.02
2019-03-06T19:29:40.049Z,24.50
2019-03-06T19:32:11.630Z,24.37
2019-03-06T19:34:42.558Z,22.37
2019-03-06T19:37:12.908Z,26.57
2019-03-06T19:39:44.436Z,26.40
2019-03-06T19:42:14.777Z,23.52
2019-03-06T19:44:49.566Z,23.98
2019-03-06T19:47:20.249Z,24.35
2019-03-06T19:49:50.736Z,22.02
2019-03-06T19:52:21.054Z,25.27
2019-03-06T19:54:51.369Z,21.45
2019-03-06T19:57:21.751Z,23.00
2019-03-06T19:59:52.119Z,21.68
2019-03-06T20:02:22.424Z,22.82
2019-03-06T20:04:52.798Z,26.17
2019-03-06T20:07:23.028Z,22.90
2019-03-06T20:09:53.300Z,23.47
2019-03-06T20:12:23.593Z,24.05
2019-03-06T20:14:54.070Z,23.85
2019-03-06T20:17:26.728Z,24.98
2019-03-06T20:19:56.992Z,25.72
2019-03-06T20:22:28.501Z,24.77
2019-03-06T20:24:58.921Z,24.57
2019-03-06T20:27:29.346Z,25.05
2019-03-06T20:29:59.714Z,25.48
2019-03-06T20:32:32.754Z,24.25
2019-03-06T20:35:05.019Z,24.63
2019-03-06T20:37:35.306Z,23.80
2019-03-06T20:40:06.446Z,24.30
2019-03-06T20:42:36.981Z,26.05
2019-03-06T20:45:07.614Z,25.02
2019-03-06T20:47:38.320Z,29.02
2019-03-06T20:50:09.070Z,31.17
2019-03-06T20:52:44.403Z,36.95
2019-03-06T20:55:15.493Z,35.88
2019-03-06T20:57:45.902Z,34.67
2019-03-06T21:00:19.094Z,36.95
2019-03-06T21:02:49.439Z,43.85
2019-03-06T21:05:19.752Z,46.55
2019-03-06T21:07:50.128Z,52.30
2019-03-06T21:10:20.540Z,56.28
2019-03-06T21:12:50.914Z,60.23
2019-03-06T21:15:21.249Z,56.68
2019-03-06T21:17:51.991Z,51.83
2019-03-06T21:20:22.309Z,54.58
2019-03-06T21:22:52.640Z,53.17
2019-03-06T21:25:22.918Z,52.15
2019-03-06T21:27:54.217Z,51.63
2019-03-06T21:30:43.018Z,51.88
2019-03-06T21:33:14.332Z,50.83
2019-03-06T21:35:44.594Z,50.63
2019-03-06T21:38:15.082Z,50.38
2019-03-06T21:40:47.795Z,49.03
2019-03-06T21:43:18.233Z,51.48
2019-03-06T21:45:48.580Z,50.85
2019-03-06T21:48:18.909Z,47.43
2019-03-06T21:50:49.148Z,46.10
2019-03-06T21:53:19.474Z,47.03
2019-03-06T21:55:51.341Z,45.70
2019-03-06T21:58:21.650Z,46.55
2019-03-06T22:00:51.924Z,46.63
2019-03-06T22:03:24.653Z,43.75
2019-03-06T22:05:54.441Z,44.70
2019-03-06T22:08:25.207Z,44.77
2019-03-06T22:10:57.989Z,44.58
2019-03-06T22:13:28.394Z,44.20
2019-03-06T22:15:59.650Z,44.88
2019-03-06T22:18:30.202Z,45.12
2019-03-06T22:21:00.441Z,45.35
2019-03-06T22:23:30.781Z,45.33
2019-03-06T22:26:01.006Z,45.20
2019-03-06T22:28:31.485Z,44.50
2019-03-06T22:31:02.126Z,49.15
2019-03-06T22:33:32.417Z,45.15
2019-03-06T22:36:02.631Z,45.95
2019-03-06T22:38:32.907Z,42.40
2019-03-06T22:41:03.188Z,44.42
2019-03-06T22:43:33.477Z,44.25
2019-03-06T22:46:04.019Z,44.23
2019-03-06T22:48:34.280Z,44.03
2019-03-06T22:51:04.661Z,44.18
2019-03-06T22:53:35.036Z,43.90
2019-03-06T22:56:06.421Z,43.45
2019-03-06T22:58:36.895Z,43.87
2019-03-06T23:01:27.437Z,43.55
2019-03-06T23:03:59.093Z,44.58
2019-03-06T23:06:29.428Z,43.02
2019-03-06T23:08:59.852Z,43.20
2019-03-06T23:11:30.166Z,44.75
2019-03-06T23:14:02.725Z,43.33
2019-03-06T23:16:33.071Z,42.20
2019-03-06T23:19:03.378Z,42.30
2019-03-06T23:21:33.686Z,41.98
2019-03-06T23:24:03.910Z,40.88
2019-03-06T23:26:42.550Z,42.17
2019-03-06T23:29:06.323Z,40.15
2019-03-06T23:31:36.784Z,41.88
2019-03-06T23:34:07.049Z,42.65
2019-03-06T23:36:37.523Z,40.88
2019-03-06T23:39:11.797Z,42.40
2019-03-06T23:41:42.327Z,40.52
2019-03-06T23:44:12.654Z,41.28
2019-03-06T23:46:42.978Z,39.65
2019-03-06T23:49:13.260Z,41.80
2019-03-06T23:51:52.645Z,40.28
2019-03-06T23:54:22.926Z,40.50
2019-03-06T23:56:53.761Z,39.50
2019-03-06T23:59:24.034Z,40.75
